Time;durP1;ratioP1;P1;durP2;ratioP2;P2;SDS_P1;SDS_P2;PMS_P1;PMS_P2;Temp;Humidity;BMP_temperature;BMP_pressure;BME280_temperature;BME280_humidity;BME280_pressure;Samples;Min_cycle;Max_cycle;Signal;HPM_P1;HPM_P2
2022/05/26 00:00:10;;;;;;;399.23;238.67;;;;;;;20.33;87.06;99764.69;339746;29;1040;-76
2022/05/26 00:00:21;;;;;;;396.88;237.85;;;;;;;20.35;87.26;99769.88;340883;29;1211;-76
2022/05/26 00:00:32;;;;;;;396.00;238.32;;;;;;;20.36;87.17;99768.91;339223;29;1782;-76
2022/05/26 00:00:42;;;;;;;395.42;236.60;;;;;;;20.35;86.86;99767.22;337588;29;3306;-76
2022/05/26 00:00:53;;;;;;;396.83;238.50;;;;;;;20.37;86.65;99773.22;336694;29;2904;-77
2022/05/26 00:01:04;;;;;;;399.33;240.27;;;;;;;20.34;87.00;99766.38;335747;29;907;-77
2022/05/26 00:01:16;;;;;;;401.67;241.23;;;;;;;20.33;87.11;99763.84;337315;29;1697;-77
2022/05/26 00:01:27;;;;;;;401.23;240.70;;;;;;;20.34;86.99;99765.53;338795;29;1481;-77
2022/05/26 00:01:37;;;;;;;402.15;239.02;;;;;;;20.35;86.71;99772.53;339667;29;870;-76
2022/05/26 00:01:48;;;;;;;401.23;237.37;;;;;;;20.33;86.84;99777.13;339266;29;2151;-77
2022/05/26 00:01:59;;;;;;;402.48;233.80;;;;;;;20.35;86.89;99780.50;339633;29;1456;-77
2022/05/26 00:02:10;;;;;;;406.10;237.85;;;;;;;20.33;87.25;99761.19;339992;29;1942;-76
2022/05/26 00:02:20;;;;;;;410.60;242.83;;;;;;;20.31;87.18;99766.63;342300;28;889;-76
2022/05/26 00:02:31;;;;;;;410.95;245.98;;;;;;;20.30;87.07;99764.06;341959;28;1657;-76
2022/05/26 00:02:41;;;;;;;409.03;246.23;;;;;;;20.27;87.08;99763.34;339670;29;1307;-76
2022/05/26 00:02:52;;;;;;;406.60;245.32;;;;;;;20.26;87.08;99763.47;336369;29;3060;-76
2022/05/26 00:03:02;;;;;;;405.43;243.53;;;;;;;20.27;87.50;99771.31;337028;29;1751;-77
2022/05/26 00:03:13;;;;;;;406.25;244.55;;;;;;;20.25;87.39;99767.94;337017;29;2023;-77
2022/05/26 00:03:24;;;;;;;405.65;245.18;;;;;;;20.25;87.23;99770.59;339544;29;1564;-77
2022/05/26 00:03:35;;;;;;;403.77;241.23;;;;;;;20.24;87.67;99762.75;338781;29;1719;-77
2022/05/26 00:03:46;;;;;;;402.50;238.32;;;;;;;20.23;87.64;99767.22;340885;29;1603;-76
2022/05/26 00:03:56;;;;;;;403.10;238.57;;;;;;;20.24;87.49;99765.41;336950;29;1892;-77
2022/05/26 00:04:07;;;;;;;403.90;240.50;;;;;;;20.24;87.23;99768.06;338221;29;1308;-77
2022/05/26 00:04:17;;;;;;;404.08;239.75;;;;;;;20.21;87.43;99761.16;343339;28;2295;-77
2022/05/26 00:04:27;;;;;;;401.63;240.57;;;;;;;20.21;87.81;99771.81;340877;29;1702;-77
2022/05/26 00:04:38;;;;;;;404.73;245.10;;;;;;;20.19;87.53;99768.41;337558;29;1231;-77
2022/05/26 00:04:49;;;;;;;402.50;245.35;;;;;;;20.18;87.64;99766.72;339136;29;3097;-77
2022/05/26 00:05:00;;;;;;;405.00;243.05;;;;;;;20.17;87.70;99770.34;340173;29;2466;-76
2022/05/26 00:05:11;;;;;;;403.38;240.13;;;;;;;20.14;87.85;99770.59;338652;29;1512;-76
2022/05/26 00:05:21;;;;;;;402.38;238.73;;;;;;;20.15;87.78;99766.97;338282;29;1422;-76
2022/05/26 00:05:31;;;;;;;402.97;238.67;;;;;;;20.15;87.76;99766.13;337258;29;1682;-76
2022/05/26 00:05:42;;;;;;;400.20;236.93;;;;;;;20.15;87.63;99764.31;339127;29;1651;-76
2022/05/26 00:05:52;;;;;;;403.60;237.47;;;;;;;20.17;87.83;99770.34;338204;29;1555;-76
2022/05/26 00:06:05;;;;;;;399.20;237.57;;;;;;;20.19;87.49;99770.22;336744;29;2143;-76
2022/05/26 00:06:18;;;;;;;401.90;237.40;;;;;;;20.16;87.54;99765.16;337884;29;1240;-76
2022/05/26 00:06:29;;;;;;;402.60;239.75;;;;;;;20.18;87.81;99769.38;340265;29;1437;-76
2022/05/26 00:06:39;;;;;;;403.40;240.82;;;;;;;20.17;87.59;99769.50;340866;29;1778;-76
2022/05/26 00:06:52;;;;;;;402.25;242.68;;;;;;;20.17;87.63;99770.34;338869;29;3706;-76
2022/05/26 00:07:02;;;;;;;403.88;243.55;;;;;;;20.17;87.38;99765.03;340798;29;2377;-76
2022/05/26 00:07:13;;;;;;;405.08;245.65;;;;;;;20.17;87.47;99770.34;340754;29;1768;-76
2022/05/26 00:07:23;;;;;;;404.77;243.30;;;;;;;20.16;87.92;99768.66;341066;29;1473;-76
2022/05/26 00:07:33;;;;;;;405.13;244.13;;;;;;;20.15;87.82;99766.97;341824;28;1455;-77
2022/05/26 00:07:44;;;;;;;407.48;242.18;;;;;;;20.14;87.69;99767.94;339491;29;1780;-77
2022/05/26 00:07:54;;;;;;;408.60;242.97;;;;;;;20.16;87.44;99773.13;336885;29;2069;-77
2022/05/26 00:08:06;;;;;;;406.63;242.57;;;;;;;20.17;87.48;99767.69;339021;29;1087;-77
2022/05/26 00:08:17;;;;;;;403.30;243.20;;;;;;;20.17;87.96;99770.34;338277;29;1418;-77
2022/05/26 00:08:27;;;;;;;399.02;239.75;;;;;;;20.19;87.63;99775.53;340627;29;1850;-77
2022/05/26 00:08:38;;;;;;;395.08;237.35;;;;;;;20.19;87.75;99768.41;337041;29;1056;-76
2022/05/26 00:08:48;;;;;;;396.53;236.83;;;;;;;20.17;87.66;99765.03;337582;29;3161;-77
2022/05/26 00:08:59;;;;;;;400.15;240.05;;;;;;;20.19;87.63;99773.72;336194;29;1508;-77
2022/05/26 00:09:09;;;;;;;401.52;238.85;;;;;;;20.17;87.78;99765.03;339525;29;1210;-77
2022/05/26 00:09:20;;;;;;;398.90;240.00;;;;;;;20.18;87.62;99773.84;338329;29;893;-78
2022/05/26 00:09:30;;;;;;;397.23;240.17;;;;;;;20.18;87.43;99772.03;337220;29;1015;-77
2022/05/26 00:09:42;;;;;;;397.50;240.77;;;;;;;20.16;87.67;99768.66;335965;29;1496;-77
2022/05/26 00:09:53;;;;;;;402.70;239.02;;;;;;;20.17;87.76;99772.16;337116;29;828;-77
2022/05/26 00:10:04;;;;;;;405.45;239.55;;;;;;;20.17;87.81;99770.34;339784;29;1186;-77
2022/05/26 00:10:14;;;;;;;404.47;241.57;;;;;;;20.18;87.52;99771.19;339468;29;1403;-77
2022/05/26 00:10:24;;;;;;;401.95;240.90;;;;;;;20.19;87.44;99768.41;336868;29;1413;-77
2022/05/26 00:10:35;;;;;;;402.57;242.47;;;;;;;20.19;87.66;99771.06;336463;29;1408;-77
2022/05/26 00:10:46;;;;;;;405.13;241.50;;;;;;;20.17;87.73;99770.34;337080;29;3212;-75
2022/05/26 00:10:56;;;;;;;404.25;242.63;;;;;;;20.17;87.68;99773.00;337877;29;2586;-77
2022/05/26 00:11:09;;;;;;;401.37;239.13;;;;;;;20.17;87.79;99773.00;340939;29;1521;-76
2022/05/26 00:11:25;;;;;;;398.65;238.98;;;;;;;20.15;87.38;99766.97;339613;29;1860;-76
2022/05/26 00:11:37;;;;;;;396.17;236.55;;;;;;;20.17;87.47;99770.34;340990;29;899;-76
2022/05/26 00:11:47;;;;;;;397.65;234.80;;;;;;;20.15;87.76;99769.63;336932;29;1626;-76
2022/05/26 00:11:57;;;;;;;400.73;234.33;;;;;;;20.16;87.43;99770.47;338271;29;2373;-76
2022/05/26 00:12:11;;;;;;;407.13;238.20;;;;;;;20.17;87.63;99770.34;339772;29;1336;-76
2022/05/26 00:12:21;;;;;;;403.52;238.98;;;;;;;20.16;87.55;99763.34;337061;29;999;-76
2022/05/26 00:12:32;;;;;;;399.08;239.57;;;;;;;20.18;87.72;99765.88;336436;29;2150;-76
2022/05/26 00:12:42;;;;;;;397.53;237.70;;;;;;;20.16;87.42;99765.16;339134;29;3031;-76
2022/05/26 00:12:53;;;;;;;396.65;235.90;;;;;;;20.14;87.59;99764.41;338826;29;2964;-76
2022/05/26 00:13:05;;;;;;;400.33;232.63;;;;;;;20.11;87.59;99765.50;338875;29;2366;-76
2022/05/26 00:13:16;;;;;;;399.00;233.02;;;;;;;20.11;87.90;99765.50;336590;29;2299;-75
2022/05/26 00:13:26;;;;;;;400.63;237.07;;;;;;;20.12;87.94;99766.34;336954;29;1300;-76
2022/05/26 00:13:37;;;;;;;400.83;239.07;;;;;;;20.12;87.96;99769.00;338405;29;886;-76
2022/05/26 00:13:48;;;;;;;402.90;241.68;;;;;;;20.13;87.41;99771.56;340489;28;2372;-76
2022/05/26 00:14:03;;;;;;;402.30;243.13;;;;;;;20.11;87.68;99769.97;338958;29;2357;-76
2022/05/26 00:14:13;;;;;;;403.83;244.95;;;;;;;20.11;87.94;99762.84;336391;29;1540;-76
2022/05/26 00:14:24;;;;;;;403.17;242.35;;;;;;;20.10;87.82;99765.63;339604;29;927;-76
2022/05/26 00:14:34;;;;;;;402.83;239.77;;;;;;;20.09;87.74;99770.09;339751;29;1678;-76
2022/05/26 00:14:45;;;;;;;399.08;235.43;;;;;;;20.10;87.90;99763.81;337901;29;3509;-76
2022/05/26 00:14:55;;;;;;;396.80;236.40;;;;;;;20.09;88.01;99766.59;338994;29;4789;-76
2022/05/26 00:15:06;;;;;;;394.90;236.23;;;;;;;20.09;87.80;99769.25;339662;29;1039;-76
2022/05/26 00:15:16;;;;;;;394.27;235.70;;;;;;;20.09;87.67;99767.44;337146;29;1473;-76
2022/05/26 00:15:27;;;;;;;397.03;236.90;;;;;;;20.08;87.78;99763.09;336213;29;1509;-76
2022/05/26 00:15:37;;;;;;;398.73;237.67;;;;;;;20.10;87.96;99761.16;339596;29;1276;-76
2022/05/26 00:15:48;;;;;;;403.42;238.48;;;;;;;20.10;88.01;99769.13;341168;28;1905;-77
2022/05/26 00:15:59;;;;;;;402.48;236.13;;;;;;;20.11;87.63;99765.50;337702;29;1525;-78
2022/05/26 00:16:10;;;;;;;404.03;239.43;;;;;;;20.12;87.79;99767.19;338336;29;894;-76
2022/05/26 00:16:20;;;;;;;402.42;243.27;;;;;;;20.14;87.75;99769.75;339717;29;945;-76
2022/05/26 00:16:30;;;;;;;403.52;244.45;;;;;;;20.13;87.42;99774.22;337740;29;2328;-76
2022/05/26 00:16:42;;;;;;;404.40;243.77;;;;;;;20.12;87.46;99767.19;339900;29;1477;-76
2022/05/26 00:16:53;;;;;;;407.33;242.73;;;;;;;20.11;87.78;99764.66;340289;29;2909;-78
2022/05/26 00:17:03;;;;;;;405.23;241.63;;;;;;;20.12;87.62;99769.00;336872;29;1462;-78
2022/05/26 00:17:14;;;;;;;403.45;240.57;;;;;;;20.11;87.35;99770.81;335844;29;2096;-77
2022/05/26 00:17:24;;;;;;;399.75;238.60;;;;;;;20.11;87.53;99770.81;335666;29;1205;-77
2022/05/26 00:17:34;;;;;;;396.67;237.27;;;;;;;20.12;87.61;99766.34;336177;29;1755;-77
2022/05/26 00:17:45;;;;;;;399.17;239.87;;;;;;;20.12;87.70;99761.88;338975;29;1658;-76
2022/05/26 00:17:55;;;;;;;402.00;238.38;;;;;;;20.12;87.36;99772.50;338293;29;1697;-76
2022/05/26 00:18:06;;;;;;;403.50;238.50;;;;;;;20.13;87.60;99768.91;339644;29;1329;-76
2022/05/26 00:18:16;;;;;;;401.65;234.13;;;;;;;20.14;87.49;99765.28;337739;29;2079;-76
2022/05/26 00:18:27;;;;;;;401.90;236.87;;;;;;;20.14;87.19;99765.28;340292;29;1748;-76
2022/05/26 00:18:37;;;;;;;399.20;234.90;;;;;;;20.14;87.23;99775.06;340915;29;1253;-76
2022/05/26 00:18:48;;;;;;;398.37;237.07;;;;;;;20.11;87.12;99765.50;336565;29;2582;-76
2022/05/26 00:18:58;;;;;;;396.75;236.68;;;;;;;20.10;87.44;99774.44;338252;29;1450;-76
2022/05/26 00:19:09;;;;;;;399.47;239.80;;;;;;;20.11;87.63;99769.97;339511;29;1384;-76
2022/05/26 00:19:19;;;;;;;401.67;241.55;;;;;;;20.10;87.57;99768.28;338390;29;1668;-76
2022/05/26 00:19:30;;;;;;;403.88;238.88;;;;;;;20.09;87.29;99772.75;337649;29;1459;-76
2022/05/26 00:19:42;;;;;;;406.30;238.33;;;;;;;20.10;87.66;99769.13;335725;29;1796;-76
2022/05/26 00:19:52;;;;;;;406.35;236.63;;;;;;;20.08;87.29;99771.06;337096;29;1409;-76
2022/05/26 00:20:04;;;;;;;405.83;236.80;;;;;;;20.06;87.57;99767.66;337253;29;1322;-75
2022/05/26 00:20:15;;;;;;;402.83;236.18;;;;;;;20.07;87.61;99769.38;336891;29;1255;-76
2022/05/26 00:20:25;;;;;;;399.10;234.27;;;;;;;20.08;87.38;99770.22;337131;29;930;-76
2022/05/26 00:20:36;;;;;;;399.13;235.50;;;;;;;20.06;87.43;99777.47;337818;29;3561;-76
2022/05/26 00:20:46;;;;;;;396.40;234.70;;;;;;;20.07;87.57;99780.00;339642;29;1453;-77
2022/05/26 00:20:58;;;;;;;397.98;237.70;;;;;;;20.06;87.58;99765.00;339423;29;1651;-75
2022/05/26 00:21:08;;;;;;;399.45;237.63;;;;;;;20.07;87.63;99769.38;339746;29;1286;-77
2022/05/26 00:21:19;;;;;;;400.80;237.85;;;;;;;20.04;87.83;99764.28;338315;29;1379;-76
2022/05/26 00:21:29;;;;;;;397.87;236.30;;;;;;;20.04;87.58;99764.28;338238;29;1486;-79
2022/05/26 00:21:40;;;;;;;399.05;235.38;;;;;;;20.01;87.59;99776.97;336996;29;1501;-78
2022/05/26 00:21:50;;;;;;;404.10;238.83;;;;;;;20.00;87.53;99773.47;339615;29;1373;-78
2022/05/26 00:22:00;;;;;;;407.35;239.60;;;;;;;20.01;87.77;99769.84;340244;29;1663;-77
2022/05/26 00:22:11;;;;;;;406.80;237.13;;;;;;;20.01;87.60;99769.00;339189;29;2639;-76
2022/05/26 00:22:21;;;;;;;405.87;236.43;;;;;;;19.99;87.74;99770.91;335674;29;1927;-76
2022/05/26 00:22:31;;;;;;;406.60;238.77;;;;;;;19.98;87.91;99769.22;338015;29;2027;-76
2022/05/26 00:22:42;;;;;;;407.20;242.73;;;;;;;19.99;87.54;99770.91;335992;29;1906;-76
2022/05/26 00:22:52;;;;;;;403.92;242.75;;;;;;;19.97;87.77;99773.69;338481;29;3129;-77
2022/05/26 00:23:03;;;;;;;403.30;245.23;;;;;;;19.97;87.80;99767.53;340608;29;3486;-76
2022/05/26 00:23:13;;;;;;;404.88;243.40;;;;;;;19.97;87.79;99773.69;335979;29;1277;-76
2022/05/26 00:23:23;;;;;;;405.93;242.70;;;;;;;19.97;87.56;99772.84;337134;29;1422;-78
2022/05/26 00:23:34;;;;;;;406.30;239.33;;;;;;;20.00;87.64;99776.13;340641;29;1565;-76
2022/05/26 00:23:44;;;;;;;404.13;237.65;;;;;;;19.98;87.95;99771.88;339549;29;2182;-77
2022/05/26 00:23:55;;;;;;;402.83;237.37;;;;;;;19.98;88.07;99771.88;339630;29;1461;-77
2022/05/26 00:24:06;;;;;;;400.45;237.50;;;;;;;19.97;87.68;99773.69;336893;29;1387;-78
2022/05/26 00:24:18;;;;;;;397.88;237.25;;;;;;;19.96;87.75;99777.31;336871;29;1888;-77
2022/05/26 00:24:28;;;;;;;400.55;238.68;;;;;;;19.92;87.87;99775.88;337034;29;1809;-77
2022/05/26 00:24:39;;;;;;;408.13;241.30;;;;;;;19.91;88.21;99777.69;337059;29;890;-77
2022/05/26 00:24:49;;;;;;;407.95;243.65;;;;;;;19.90;87.98;99770.69;338156;29;3168;-77
2022/05/26 00:24:59;;;;;;;407.57;242.37;;;;;;;19.89;87.89;99773.47;338716;29;4899;-77
2022/05/26 00:25:10;;;;;;;403.75;242.68;;;;;;;19.91;88.03;99774.19;339685;29;2153;-77
2022/05/26 00:25:20;;;;;;;403.37;238.87;;;;;;;19.90;87.93;99778.66;339552;29;1300;-77
2022/05/26 00:25:31;;;;;;;399.17;234.65;;;;;;;19.90;87.84;99775.16;337008;29;2356;-77
2022/05/26 00:25:41;;;;;;;398.67;233.20;;;;;;;19.90;87.93;99773.34;338301;29;2005;-77
2022/05/26 00:25:51;;;;;;;402.00;236.93;;;;;;;19.89;88.02;99778.78;337643;29;983;-77
2022/05/26 00:26:02;;;;;;;404.95;239.20;;;;;;;19.88;87.93;99764.66;338476;29;2200;-77
2022/05/26 00:26:12;;;;;;;406.00;239.27;;;;;;;19.92;88.04;99775.88;336459;29;1773;-77
2022/05/26 00:26:23;;;;;;;406.75;238.60;;;;;;;19.91;87.69;99766.22;339623;29;1368;-77
2022/05/26 00:26:34;;;;;;;406.30;237.70;;;;;;;19.91;87.86;99774.19;338155;29;2443;-77
2022/05/26 00:26:44;;;;;;;407.13;236.53;;;;;;;19.92;87.79;99775.88;338885;29;1941;-77
2022/05/26 00:26:55;;;;;;;405.60;235.55;;;;;;;19.90;88.11;99777.81;339997;29;3741;-77
2022/05/26 00:27:05;;;;;;;407.17;234.77;;;;;;;19.90;87.99;99773.34;339633;29;997;-76
2022/05/26 00:27:16;;;;;;;404.75;235.38;;;;;;;19.91;87.74;99779.50;338768;29;1907;-76
2022/05/26 00:27:26;;;;;;;403.57;235.47;;;;;;;19.91;88.06;99774.19;339679;29;818;-76
2022/05/26 00:27:36;;;;;;;401.48;236.90;;;;;;;19.92;88.20;99770.56;336621;29;2071;-76
2022/05/26 00:27:47;;;;;;;400.57;234.77;;;;;;;19.93;88.06;99778.41;338859;29;2431;-76
2022/05/26 00:27:57;;;;;;;401.53;236.50;;;;;;;19.93;88.15;99775.75;338379;29;1318;-77
2022/05/26 00:28:08;;;;;;;401.10;238.37;;;;;;;19.95;87.81;99772.97;340775;29;783;-77
2022/05/26 00:28:18;;;;;;;400.27;239.37;;;;;;;19.96;88.03;99766.69;341942;28;1422;-77
2022/05/26 00:28:30;;;;;;;398.58;238.93;;;;;;;19.96;87.66;99772.00;340907;29;1702;-77
2022/05/26 00:28:40;;;;;;;397.85;236.32;;;;;;;19.96;87.45;99766.69;338751;29;1294;-77
2022/05/26 00:28:50;;;;;;;399.83;237.80;;;;;;;19.98;87.68;99770.06;337481;29;2640;-77
2022/05/26 00:29:01;;;;;;;398.20;233.93;;;;;;;19.97;87.46;99768.38;340208;29;2191;-77
2022/05/26 00:29:11;;;;;;;397.38;233.82;;;;;;;19.96;87.36;99765.84;341051;29;913;-77
2022/05/26 00:29:22;;;;;;;395.00;232.60;;;;;;;19.96;87.50;99766.69;340941;29;873;-77
2022/05/26 00:29:34;;;;;;;393.65;234.73;;;;;;;19.95;87.61;99765.00;338395;29;1457;-77
2022/05/26 00:29:44;;;;;;;393.83;236.38;;;;;;;19.96;87.54;99772.00;337892;29;1479;-77
2022/05/26 00:29:55;;;;;;;395.87;238.10;;;;;;;19.95;87.43;99765.00;338148;29;1697;-77
2022/05/26 00:30:06;;;;;;;397.98;238.23;;;;;;;19.96;87.56;99766.69;339749;29;1599;-78
2022/05/26 00:30:17;;;;;;;399.15;237.80;;;;;;;19.95;87.71;99759.69;339309;29;2336;-78
2022/05/26 00:30:27;;;;;;;399.02;237.63;;;;;;;19.95;87.65;99762.34;340842;29;2030;-76
2022/05/26 00:30:38;;;;;;;396.53;236.30;;;;;;;19.94;87.83;99763.31;339585;29;1369;-77
2022/05/26 00:30:49;;;;;;;398.20;235.20;;;;;;;19.95;87.76;99765.00;338045;29;3495;-76
2022/05/26 00:30:59;;;;;;;397.40;235.50;;;;;;;19.95;87.76;99765.00;338366;29;3080;-77
2022/05/26 00:31:09;;;;;;;396.30;234.80;;;;;;;19.95;87.79;99759.69;338612;29;1163;-76
2022/05/26 00:31:20;;;;;;;397.52;235.85;;;;;;;19.94;87.95;99766.81;335997;29;1510;-76
2022/05/26 00:31:30;;;;;;;400.63;235.13;;;;;;;19.96;87.66;99757.88;340746;29;1571;-76
2022/05/26 00:31:41;;;;;;;402.08;233.15;;;;;;;19.94;87.63;99758.00;338429;29;1282;-76
2022/05/26 00:31:51;;;;;;;398.00;233.17;;;;;;;19.95;87.62;99765.00;336998;29;1230;-76
2022/05/26 00:32:02;;;;;;;395.30;233.20;;;;;;;19.93;87.45;99756.28;338808;29;1544;-76
2022/05/26 00:32:12;;;;;;;398.77;233.50;;;;;;;19.98;87.76;99762.09;339560;29;1658;-76
2022/05/26 00:32:23;;;;;;;399.08;231.77;;;;;;;19.96;87.57;99758.72;337241;29;2154;-77
2022/05/26 00:32:33;;;;;;;398.50;230.07;;;;;;;19.95;87.72;99759.69;337116;29;2324;-76
2022/05/26 00:32:44;;;;;;;397.75;231.15;;;;;;;19.95;87.79;99759.69;339193;29;1326;-76
2022/05/26 00:32:54;;;;;;;401.83;232.70;;;;;;;19.96;87.33;99761.38;335153;29;3221;-76
2022/05/26 00:33:05;;;;;;;404.83;234.33;;;;;;;19.95;87.70;99754.38;340313;29;1442;-76
2022/05/26 00:33:16;;;;;;;400.35;232.75;;;;;;;19.94;87.71;99758.84;340740;29;2718;-76
2022/05/26 00:33:27;;;;;;;397.67;231.20;;;;;;;19.94;87.94;99760.66;340992;29;823;-75
2022/05/26 00:33:37;;;;;;;395.90;230.70;;;;;;;19.96;87.53;99760.53;338949;29;910;-76
2022/05/26 00:33:47;;;;;;;397.75;233.05;;;;;;;19.93;87.73;99757.13;340172;29;1313;-76
2022/05/26 00:33:58;;;;;;;397.00;233.57;;;;;;;19.94;87.38;99760.66;340984;29;1452;-76
2022/05/26 00:34:08;;;;;;;393.60;229.57;;;;;;;19.93;87.56;99756.28;335612;29;1580;-76
2022/05/26 00:34:19;;;;;;;394.02;227.57;;;;;;;19.94;87.50;99747.38;339509;29;1886;-76
2022/05/26 00:34:29;;;;;;;394.57;228.47;;;;;;;19.92;87.69;99746.66;339955;29;2518;-76
2022/05/26 00:34:39;;;;;;;394.73;230.25;;;;;;;19.91;87.70;99756.44;337268;29;1408;-76
2022/05/26 00:34:50;;;;;;;394.20;231.23;;;;;;;19.92;87.31;99752.81;337901;29;3066;-76
2022/05/26 00:35:00;;;;;;;390.70;227.02;;;;;;;19.92;87.66;99760.78;338648;29;1760;-76
2022/05/26 00:35:11;;;;;;;394.03;228.30;;;;;;;19.92;87.70;99754.63;342329;28;1031;-76
2022/05/26 00:35:21;;;;;;;394.88;228.93;;;;;;;19.92;87.50;99755.47;339610;29;1568;-76
2022/05/26 00:35:34;;;;;;;395.93;229.73;;;;;;;19.91;87.72;99752.94;337210;29;2190;-76
2022/05/26 00:35:45;;;;;;;397.65;227.90;;;;;;;19.90;87.89;99756.56;340914;29;1708;-76
2022/05/26 00:35:58;;;;;;;397.77;227.63;;;;;;;19.90;87.72;99753.91;339501;29;889;-76
2022/05/26 00:36:10;;;;;;;399.10;230.38;;;;;;;19.89;87.95;99749.56;337130;29;1520;-76
2022/05/26 00:36:38;;;;;;;400.45;231.18;;;;;;;19.89;87.65;99760.19;336839;29;1812;-76
2022/05/26 00:36:49;;;;;;;399.40;233.00;;;;;;;19.87;88.19;99764.75;337389;29;2129;-76
2022/05/26 00:36:59;;;;;;;400.05;232.90;;;;;;;19.83;88.02;99755.34;337945;29;2994;-76
2022/05/26 00:37:09;;;;;;;402.90;235.17;;;;;;;19.82;88.04;99758.97;337479;29;2137;-76
2022/05/26 00:37:20;;;;;;;404.40;236.38;;;;;;;19.79;88.08;99752.06;339675;29;1457;-76
2022/05/26 00:37:30;;;;;;;407.67;237.73;;;;;;;19.79;88.09;99753.88;339342;29;1586;-76
2022/05/26 00:37:44;;;;;;;408.43;236.57;;;;;;;19.80;88.18;99755.56;336927;29;977;-76
2022/05/26 00:37:54;;;;;;;399.33;232.20;;;;;;;19.80;88.11;99760.88;340951;29;1319;-76
2022/05/26 00:38:05;;;;;;;396.58;231.35;;;;;;;19.82;88.28;99761.63;339569;29;2008;-76
2022/05/26 00:38:16;;;;;;;398.37;234.83;;;;;;;19.83;88.22;99760.66;339589;29;1744;-76
2022/05/26 00:38:26;;;;;;;398.98;235.48;;;;;;;19.84;88.31;99768.50;338330;29;823;-76
2022/05/26 00:38:38;;;;;;;397.70;235.40;;;;;;;19.80;88.04;99759.06;338231;29;2002;-76
2022/05/26 00:38:48;;;;;;;398.33;234.35;;;;;;;19.82;88.49;99764.28;337712;29;2508;-76
2022/05/26 00:38:59;;;;;;;400.27;236.10;;;;;;;19.80;88.37;99758.22;337644;29;3015;-76
2022/05/26 00:39:14;;;;;;;401.40;236.80;;;;;;;19.80;88.18;99767.03;337069;29;950;-76
2022/05/26 00:39:25;;;;;;;399.90;234.10;;;;;;;19.80;88.05;99761.72;335780;29;959;-76
2022/05/26 00:39:35;;;;;;;398.00;234.13;;;;;;;19.78;88.23;99763.66;336884;29;1497;-76
2022/05/26 00:39:46;;;;;;;398.10;234.00;;;;;;;19.78;88.35;99768.13;335984;29;1781;-76
2022/05/26 00:39:56;;;;;;;400.43;232.37;;;;;;;19.77;88.15;99756.66;338321;29;912;-76
2022/05/26 00:40:07;;;;;;;403.25;233.48;;;;;;;19.77;88.15;99755.81;336935;29;1251;-76
2022/05/26 00:40:17;;;;;;;401.88;233.85;;;;;;;19.79;88.11;99759.19;337633;29;2233;-76
2022/05/26 00:40:28;;;;;;;397.97;236.10;;;;;;;19.77;88.13;99761.13;340904;29;1325;-76
2022/05/26 00:40:38;;;;;;;397.13;233.70;;;;;;;19.78;88.37;99762.81;339606;29;1410;-76
2022/05/26 00:40:49;;;;;;;399.17;236.17;;;;;;;19.77;88.31;99758.47;337040;29;2014;-76
2022/05/26 00:41:11;;;;;;;400.13;235.63;;;;;;;19.75;88.51;99763.03;338927;29;4481;-76
2022/05/26 00:41:22;;;;;;;404.65;238.35;;;;;;;19.73;88.43;99759.66;339127;29;1796;-76
2022/05/26 00:41:32;;;;;;;403.50;236.60;;;;;;;19.71;88.48;99759.78;336965;29;1862;-76
2022/05/26 00:42:01;;;;;;;397.02;232.77;;;;;;;19.74;88.38;99758.69;336910;29;1439;-76
2022/05/26 00:42:12;;;;;;;401.35;233.30;;;;;;;19.73;88.51;99763.16;339379;29;1715;-76
2022/05/26 00:42:22;;;;;;;402.13;233.50;;;;;;;19.74;88.50;99766.66;340412;29;2249;-76
2022/05/26 00:42:32;;;;;;;401.77;236.80;;;;;;;19.73;88.61;99759.66;341204;28;2500;-76
2022/05/26 00:42:43;;;;;;;401.65;234.15;;;;;;;19.74;88.20;99769.31;339504;29;1441;-76
2022/05/26 00:42:53;;;;;;;398.50;234.47;;;;;;;19.74;88.39;99767.50;338668;29;3233;-76
2022/05/26 00:43:04;;;;;;;400.77;237.60;;;;;;;19.73;88.35;99759.66;339495;29;2467;-75
2022/05/26 00:43:14;;;;;;;403.00;239.98;;;;;;;19.73;88.34;99760.50;339479;29;1936;-76
2022/05/26 00:43:25;;;;;;;404.88;238.75;;;;;;;19.72;88.31;99761.47;336695;29;1229;-76
2022/05/26 00:43:40;;;;;;;404.83;235.83;;;;;;;19.72;88.63;99760.63;337073;29;2445;-76
2022/05/26 00:43:50;;;;;;;407.00;237.85;;;;;;;19.70;88.60;99760.72;340384;29;2653;-76
2022/05/26 00:44:01;;;;;;;403.15;235.18;;;;;;;19.72;88.71;99757.97;342738;28;1911;-76
2022/05/26 00:44:11;;;;;;;399.63;234.03;;;;;;;19.73;88.50;99764.97;341923;28;1298;-76
2022/05/26 00:44:22;;;;;;;398.00;233.05;;;;;;;19.71;88.55;99761.59;339022;29;1845;-75
2022/05/26 00:44:33;;;;;;;399.47;231.97;;;;;;;19.72;88.89;99757.97;337083;29;1787;-76
2022/05/26 00:44:43;;;;;;;402.00;231.73;;;;;;;19.69;88.72;99760.84;338640;29;1234;-76
2022/05/26 00:44:53;;;;;;;402.00;233.63;;;;;;;19.67;88.88;99760.13;336257;29;3081;-76
2022/05/26 00:45:05;;;;;;;402.93;236.60;;;;;;;19.65;88.66;99754.06;336931;29;1624;-76
2022/05/26 00:45:15;;;;;;;399.10;234.73;;;;;;;19.67;88.64;99760.13;337995;29;1919;-76
2022/05/26 00:45:32;;;;;;;401.50;232.87;;;;;;;19.65;89.26;99762.03;339535;29;1244;-76
2022/05/26 00:45:45;;;;;;;402.33;233.43;;;;;;;19.66;89.09;99758.44;338322;29;1293;-76
2022/05/26 00:46:01;;;;;;;399.33;231.38;;;;;;;19.68;88.74;99761.81;338243;29;1251;-76
2022/05/26 00:46:23;;;;;;;393.45;225.77;;;;;;;19.68;88.63;99756.50;337242;29;843;-76
2022/05/26 00:46:39;;;;;;;393.38;224.70;;;;;;;19.72;88.49;99760.63;336881;29;2488;-76
2022/05/26 00:47:04;;;;;;;397.95;229.13;;;;;;;19.70;88.48;99759.88;336053;29;2204;-76
2022/05/26 00:47:20;;;;;;;394.50;228.63;;;;;;;19.71;88.66;99758.94;336377;29;1355;-76
2022/05/26 00:47:32;;;;;;;400.33;233.23;;;;;;;19.71;88.31;99766.91;338114;29;2376;-76
2022/05/26 00:47:44;;;;;;;402.17;233.50;;;;;;;19.70;88.83;99762.53;338241;29;1570;-76
2022/05/26 00:47:54;;;;;;;399.23;231.93;;;;;;;19.70;88.43;99759.88;338211;29;1439;-76
2022/05/26 00:48:06;;;;;;;398.77;232.93;;;;;;;19.71;88.70;99766.91;338945;29;2045;-76
2022/05/26 00:48:18;;;;;;;400.55;235.57;;;;;;;19.71;88.83;99761.59;336599;29;2166;-76
2022/05/26 00:48:36;;;;;;;398.60;232.50;;;;;;;19.72;88.16;99763.28;337036;29;1306;-77
2022/05/26 00:48:49;;;;;;;393.48;227.30;;;;;;;19.73;88.63;99759.66;336458;29;2740;-76
2022/05/26 00:48:59;;;;;;;395.98;230.30;;;;;;;19.72;88.74;99758.81;336723;29;3275;-76
2022/05/26 00:49:15;;;;;;;395.88;227.90;;;;;;;19.73;88.70;99764.97;337907;29;1495;-76
2022/05/26 00:49:47;;;;;;;395.38;228.65;;;;;;;19.75;88.82;99771.00;335759;29;915;-76
2022/05/26 00:50:06;;;;;;;396.33;230.75;;;;;;;19.73;88.64;99765.81;338326;29;1037;-76
2022/05/26 00:50:26;;;;;;;396.40;229.38;;;;;;;19.74;88.24;99761.34;338278;29;1646;-76
2022/05/26 00:50:46;;;;;;;394.88;227.13;;;;;;;19.73;88.57;99764.97;338727;29;1638;-76
2022/05/26 00:51:00;;;;;;;395.05;228.00;;;;;;;19.70;88.58;99766.03;334760;29;2802;-76
2022/05/26 00:51:10;;;;;;;399.35;231.85;;;;;;;19.70;88.37;99768.69;337015;29;1056;-76
2022/05/26 00:51:28;;;;;;;397.80;231.07;;;;;;;19.69;88.46;99767.00;337557;29;2035;-76
2022/05/26 00:51:39;;;;;;;395.10;233.10;;;;;;;19.67;88.68;99760.97;335417;29;2223;-76
2022/05/26 00:51:49;;;;;;;397.57;233.60;;;;;;;19.68;88.52;99764.47;336723;29;2314;-76
2022/05/26 00:51:59;;;;;;;397.98;232.05;;;;;;;19.69;88.30;99763.50;336981;29;1241;-76
2022/05/26 00:52:14;;;;;;;399.27;228.97;;;;;;;19.67;88.57;99760.13;338128;29;2887;-76
2022/05/26 00:52:33;;;;;;;400.33;228.55;;;;;;;19.66;88.52;99774.34;339434;29;5864;-76